createdAt,value
2022-12-18T00:00:20.011Z,64.65
2022-12-18T00:01:24.113Z,62.90
2022-12-18T00:02:14.846Z,64.55
2022-12-18T00:03:38.681Z,61.80
2022-12-18T00:04:14.774Z,61.86
2022-12-18T00:05:13.615Z,64.30
2022-12-18T00:06:13.612Z,61.59
2022-12-18T00:07:13.617Z,61.75
2022-12-18T00:08:13.562Z,63.45
2022-12-18T00:09:13.535Z,62.86
2022-12-18T00:10:15.474Z,63.62
2022-12-18T00:11:13.563Z,63.84
2022-12-18T00:13:13.494Z,63.09
2022-12-18T00:14:13.456Z,59.92
2022-12-18T00:15:13.472Z,62.91
2022-12-18T00:16:13.464Z,63.45
2022-12-18T00:17:13.436Z,60.53
2022-12-18T00:18:16.081Z,64.64
2022-12-18T00:19:15.363Z,63.25
2022-12-18T00:20:13.342Z,60.98
2022-12-18T00:21:13.350Z,62.59
2022-12-18T00:22:13.355Z,65.24
2022-12-18T00:23:13.324Z,64.01
2022-12-18T00:24:13.283Z,62.19
2022-12-18T00:25:13.281Z,63.23
2022-12-18T00:26:13.255Z,62.93
2022-12-18T00:27:14.271Z,62.21
2022-12-18T00:28:13.248Z,61.41
2022-12-18T00:29:13.223Z,62.84
2022-12-18T00:30:13.175Z,61.26
2022-12-18T00:31:13.228Z,62.51
2022-12-18T00:32:13.171Z,62.57
2022-12-18T00:33:13.139Z,64.84
2022-12-18T00:34:13.129Z,63.03
2022-12-18T00:35:13.104Z,62.98
2022-12-18T00:36:13.071Z,62.29
2022-12-18T00:37:18.283Z,62.22
2022-12-18T00:38:15.038Z,61.79
2022-12-18T00:39:13.031Z,63.05
2022-12-18T00:40:13.014Z,62.40
2022-12-18T00:41:13.037Z,61.23
2022-12-18T00:42:13.075Z,62.38
2022-12-18T00:43:12.963Z,62.60
2022-12-18T00:44:12.947Z,63.22
2022-12-18T00:45:13.429Z,63.08
2022-12-18T00:46:13.964Z,65.07
2022-12-18T00:47:12.921Z,63.55
2022-12-18T00:48:12.906Z,62.62
2022-12-18T00:49:12.890Z,62.59
2022-12-18T00:50:12.841Z,62.17
2022-12-18T00:51:12.852Z,62.26
2022-12-18T00:52:12.852Z,63.16
2022-12-18T00:53:12.794Z,63.37
2022-12-18T00:54:12.772Z,62.13
2022-12-18T00:55:15.270Z,63.49
2022-12-18T00:56:12.737Z,63.51
2022-12-18T00:57:12.743Z,62.41
2022-12-18T00:58:12.700Z,62.09
2022-12-18T00:59:12.697Z,63.64
2022-12-18T01:00:12.706Z,63.28
2022-12-18T01:01:12.676Z,63.42
2022-12-18T01:02:12.902Z,64.13
2022-12-18T01:03:12.676Z,62.63
2022-12-18T01:04:12.599Z,62.20
2022-12-18T01:05:12.582Z,62.08
2022-12-18T01:06:12.588Z,64.46
2022-12-18T01:07:12.589Z,62.32
2022-12-18T01:08:12.739Z,61.62
2022-12-18T01:09:12.518Z,61.84
2022-12-18T01:10:12.511Z,62.49
2022-12-18T01:11:12.477Z,61.83
2022-12-18T01:12:12.493Z,64.07
2022-12-18T01:13:12.451Z,62.94
2022-12-18T01:14:12.434Z,62.21
2022-12-18T01:15:12.403Z,62.61
2022-12-18T01:16:12.470Z,63.27
2022-12-18T01:17:12.413Z,64.68
2022-12-18T01:18:12.356Z,62.81
2022-12-18T01:19:12.605Z,60.56
2022-12-18T01:20:12.325Z,62.89
2022-12-18T01:21:12.305Z,61.00
2022-12-18T01:22:12.344Z,64.14
2022-12-18T01:23:12.282Z,63.82
2022-12-18T01:24:12.349Z,64.12
2022-12-18T01:25:12.251Z,62.51
2022-12-18T01:26:12.217Z,64.92
2022-12-18T01:27:12.239Z,62.86
2022-12-18T01:28:12.191Z,65.03
2022-12-18T01:29:12.175Z,63.39
2022-12-18T01:30:12.156Z,62.15
2022-12-18T01:31:12.157Z,62.33
2022-12-18T01:32:12.194Z,62.49
2022-12-18T01:33:12.114Z,62.04
2022-12-18T01:34:12.120Z,62.33
2022-12-18T01:35:12.081Z,63.36
2022-12-18T01:36:12.043Z,64.02
2022-12-18T01:37:12.077Z,63.35
2022-12-18T01:38:12.028Z,62.65
2022-12-18T01:39:12.020Z,60.70
2022-12-18T01:40:11.984Z,63.06
2022-12-18T01:41:12.170Z,61.94
2022-12-18T01:42:11.968Z,61.42
2022-12-18T01:43:11.970Z,64.57
2022-12-18T01:44:11.943Z,63.22
2022-12-18T01:45:11.995Z,62.54
2022-12-18T01:46:11.966Z,60.31
2022-12-18T01:47:11.898Z,64.61
2022-12-18T01:48:11.844Z,63.25
2022-12-18T01:49:11.818Z,63.41
2022-12-18T01:50:11.812Z,63.17
2022-12-18T01:51:11.838Z,62.38
2022-12-18T01:52:12.814Z,62.97
2022-12-18T01:53:11.751Z,63.47
2022-12-18T01:54:11.803Z,61.91
2022-12-18T01:55:11.725Z,62.75
2022-12-18T01:56:11.730Z,63.51
2022-12-18T01:57:11.719Z,61.33
2022-12-18T01:58:11.663Z,63.93
2022-12-18T01:59:11.721Z,61.51
2022-12-18T02:00:11.632Z,62.12
2022-12-18T02:01:11.665Z,62.41
2022-12-18T02:02:11.789Z,63.00
2022-12-18T02:03:11.670Z,60.99
2022-12-18T02:04:11.555Z,61.79
2022-12-18T02:05:11.561Z,63.37
2022-12-18T02:06:11.615Z,61.31
2022-12-18T02:07:11.555Z,64.12
2022-12-18T02:08:11.500Z,64.16
2022-12-18T02:09:11.485Z,64.32
2022-12-18T02:10:11.469Z,62.33
2022-12-18T02:11:11.444Z,63.62
2022-12-18T02:12:11.461Z,63.12
2022-12-18T02:13:11.479Z,64.75
2022-12-18T02:14:11.409Z,61.49
2022-12-18T02:15:11.386Z,61.52
2022-12-18T02:16:11.415Z,60.83
2022-12-18T02:17:11.386Z,62.91
2022-12-18T02:18:11.339Z,62.07
2022-12-18T02:19:11.315Z,62.27
2022-12-18T02:20:11.301Z,61.87
2022-12-18T02:21:11.277Z,62.35
2022-12-18T02:22:11.313Z,62.98
2022-12-18T02:23:11.250Z,62.75
2022-12-18T02:24:11.225Z,65.52
2022-12-18T02:25:11.213Z,62.31
2022-12-18T02:26:11.193Z,62.53
2022-12-18T02:27:11.213Z,62.56
2022-12-18T02:28:11.151Z,62.64
2022-12-18T02:29:12.225Z,62.37
2022-12-18T02:30:11.129Z,63.47
2022-12-18T02:31:11.164Z,64.85
2022-12-18T02:32:11.128Z,64.05
2022-12-18T02:33:11.086Z,61.39
2022-12-18T02:34:11.069Z,63.74
2022-12-18T02:35:11.062Z,63.10
2022-12-18T02:36:11.031Z,60.95
2022-12-18T02:37:11.060Z,62.77
2022-12-18T02:38:11.016Z,64.03
2022-12-18T02:39:11.032Z,63.72
2022-12-18T02:40:11.035Z,63.08
2022-12-18T02:41:10.962Z,61.71
2022-12-18T02:42:10.971Z,62.16
2022-12-18T02:43:10.918Z,61.62
2022-12-18T02:44:10.897Z,62.33
2022-12-18T02:45:10.946Z,63.81
2022-12-18T02:46:10.897Z,63.25
2022-12-18T02:47:10.890Z,63.70
2022-12-18T02:48:10.836Z,62.72
2022-12-18T02:49:10.816Z,63.00
2022-12-18T02:50:10.809Z,65.10
2022-12-18T02:51:10.794Z,64.63
2022-12-18T02:52:10.802Z,62.49
2022-12-18T02:53:10.759Z,64.62
2022-12-18T02:54:10.734Z,64.62
2022-12-18T02:55:10.729Z,61.72
2022-12-18T02:56:10.706Z,63.22
2022-12-18T02:57:10.695Z,63.09
2022-12-18T02:58:10.703Z,60.98
2022-12-18T02:59:10.651Z,62.19
2022-12-18T03:00:10.631Z,63.87
2022-12-18T03:01:10.740Z,64.08
2022-12-18T03:02:10.768Z,61.73
2022-12-18T03:03:10.694Z,59.79
2022-12-18T03:04:10.583Z,62.65
2022-12-18T03:05:10.556Z,61.37
2022-12-18T03:06:10.544Z,61.23
2022-12-18T03:07:10.516Z,60.90
2022-12-18T03:08:10.527Z,64.33
2022-12-18T03:09:10.587Z,63.39
2022-12-18T03:10:10.475Z,62.37
2022-12-18T03:11:10.443Z,63.36
2022-12-18T03:12:10.430Z,62.56
2022-12-18T03:13:10.450Z,62.62
2022-12-18T03:14:10.403Z,63.26
2022-12-18T03:15:15.998Z,61.65
2022-12-18T03:16:12.456Z,60.72
2022-12-18T03:17:10.366Z,60.81
2022-12-18T03:18:10.370Z,64.00
2022-12-18T03:19:10.338Z,60.95
2022-12-18T03:20:10.317Z,61.91
2022-12-18T03:21:10.291Z,62.24
2022-12-18T03:22:10.267Z,60.87
2022-12-18T03:23:10.317Z,63.33
2022-12-18T03:24:10.237Z,61.23
2022-12-18T03:25:10.220Z,63.73
2022-12-18T03:26:10.215Z,64.57
2022-12-18T03:27:10.183Z,64.47
2022-12-18T03:28:10.196Z,63.93
2022-12-18T03:29:10.178Z,62.44
2022-12-18T03:30:10.143Z,62.39
2022-12-18T03:31:10.145Z,64.08
2022-12-18T03:32:10.179Z,61.51
2022-12-18T03:33:10.115Z,62.57
2022-12-18T03:34:10.068Z,67.03
2022-12-18T03:35:10.053Z,63.70
2022-12-18T03:36:10.044Z,61.88
2022-12-18T03:37:10.035Z,62.10
2022-12-18T03:38:10.042Z,61.64
2022-12-18T03:39:10.009Z,62.37
2022-12-18T03:40:09.970Z,63.43
2022-12-18T03:41:09.959Z,63.04
2022-12-18T03:42:09.930Z,63.49
2022-12-18T03:43:09.954Z,63.95
2022-12-18T03:44:09.912Z,62.94
2022-12-18T03:45:09.887Z,64.07
2022-12-18T03:46:09.962Z,64.37
2022-12-18T03:47:09.865Z,63.48
2022-12-18T03:48:09.940Z,64.21
2022-12-18T03:49:09.820Z,60.75
2022-12-18T03:50:12.816Z,64.42
2022-12-18T03:51:10.803Z,65.55
2022-12-18T03:52:09.781Z,62.54
2022-12-18T03:53:09.794Z,63.87
2022-12-18T03:54:09.744Z,61.99
2022-12-18T03:55:09.734Z,64.10
2022-12-18T03:56:09.712Z,64.26
2022-12-18T03:57:09.689Z,64.20
2022-12-18T03:58:09.712Z,63.63
2022-12-18T03:59:09.668Z,63.59
2022-12-18T04:00:09.648Z,62.72
2022-12-18T04:01:09.696Z,64.01
2022-12-18T04:02:09.705Z,61.03
2022-12-18T04:03:09.664Z,61.05
2022-12-18T04:04:09.789Z,62.69
2022-12-18T04:05:09.568Z,65.06
2022-12-18T04:06:09.541Z,63.76
2022-12-18T04:07:09.527Z,63.00
2022-12-18T04:08:09.537Z,64.92
2022-12-18T04:09:09.491Z,64.18
2022-12-18T04:10:09.474Z,66.28
2022-12-18T04:11:09.459Z,63.38
2022-12-18T04:12:09.456Z,64.60
2022-12-18T04:13:09.468Z,63.90
2022-12-18T04:14:14.434Z,65.24
2022-12-18T04:15:11.393Z,64.66
2022-12-18T04:16:09.458Z,65.98
2022-12-18T04:17:09.357Z,63.89
2022-12-18T04:18:09.469Z,63.60
2022-12-18T04:19:09.366Z,64.45
2022-12-18T04:20:09.391Z,65.37
2022-12-18T04:21:09.319Z,65.44
2022-12-18T04:22:09.284Z,64.91
2022-12-18T04:23:09.297Z,61.24
2022-12-18T04:24:09.251Z,66.02
2022-12-18T04:25:09.238Z,63.27
2022-12-18T04:26:09.215Z,63.82
2022-12-18T04:27:09.211Z,64.52
2022-12-18T04:28:09.213Z,65.08
2022-12-18T04:29:09.166Z,63.65
2022-12-18T04:30:09.149Z,64.07
2022-12-18T04:31:09.194Z,62.02
2022-12-18T04:32:09.115Z,66.44
2022-12-18T04:33:09.221Z,66.59
2022-12-18T04:34:09.080Z,66.13
2022-12-18T04:35:09.067Z,64.87
2022-12-18T04:36:09.138Z,62.59
2022-12-18T04:37:09.042Z,62.92
2022-12-18T04:38:09.066Z,63.85
2022-12-18T04:39:09.004Z,62.83
2022-12-18T04:40:08.994Z,64.80
2022-12-18T04:41:08.968Z,63.66
2022-12-18T04:42:08.949Z,62.77
2022-12-18T04:43:08.996Z,61.70
2022-12-18T04:44:08.927Z,64.66
2022-12-18T04:45:08.920Z,64.64
2022-12-18T04:46:08.976Z,62.67
2022-12-18T04:47:08.881Z,64.34
2022-12-18T04:48:08.892Z,63.93
2022-12-18T04:49:08.907Z,65.74
2022-12-18T04:50:08.832Z,65.80
2022-12-18T04:51:08.811Z,64.07
2022-12-18T04:52:08.947Z,62.51
2022-12-18T04:53:08.823Z,62.14
2022-12-18T04:54:09.763Z,64.21
2022-12-18T04:55:08.739Z,64.82
2022-12-18T04:56:08.738Z,61.91
2022-12-18T04:57:08.748Z,61.53
2022-12-18T04:58:08.719Z,60.80
2022-12-18T04:59:08.681Z,65.28
2022-12-18T05:00:08.665Z,63.90
2022-12-18T05:01:08.657Z,65.04
2022-12-18T05:02:08.708Z,64.13
2022-12-18T05:03:08.636Z,65.97
2022-12-18T05:04:08.660Z,64.07
2022-12-18T05:05:08.571Z,64.78
2022-12-18T05:06:08.560Z,64.36
2022-12-18T05:07:08.530Z,62.81
2022-12-18T05:08:09.625Z,65.10
2022-12-18T05:09:09.499Z,63.79
2022-12-18T05:10:08.515Z,64.03
2022-12-18T05:11:08.491Z,61.87
2022-12-18T05:12:08.457Z,61.41
2022-12-18T05:13:08.477Z,63.52
2022-12-18T05:14:08.480Z,63.67
2022-12-18T05:15:08.418Z,62.76
2022-12-18T05:16:08.463Z,62.68
2022-12-18T05:17:08.404Z,66.18
2022-12-18T05:18:08.387Z,64.86
2022-12-18T05:19:08.347Z,63.89
2022-12-18T05:20:08.352Z,63.77
2022-12-18T05:21:08.313Z,64.91
2022-12-18T05:22:08.319Z,65.37
2022-12-18T05:23:08.319Z,62.84
2022-12-18T05:24:08.336Z,64.01
2022-12-18T05:25:08.255Z,63.78
2022-12-18T05:26:08.234Z,64.65
2022-12-18T05:27:08.208Z,63.62
2022-12-18T05:28:08.214Z,64.07
2022-12-18T05:29:08.171Z,63.05
2022-12-18T05:30:08.191Z,65.30
2022-12-18T05:31:08.188Z,65.89
2022-12-18T05:32:08.121Z,64.25
2022-12-18T05:33:08.136Z,64.26
2022-12-18T05:34:08.093Z,64.07
2022-12-18T05:35:08.067Z,66.36
2022-12-18T05:36:08.059Z,67.11
2022-12-18T05:37:08.047Z,64.74
2022-12-18T05:38:08.057Z,64.59
2022-12-18T05:39:08.009Z,65.02
2022-12-18T05:40:08.056Z,64.96
2022-12-18T05:41:07.970Z,67.64
2022-12-18T05:42:07.953Z,65.33
2022-12-18T05:43:07.980Z,64.00
2022-12-18T05:44:07.948Z,63.81
2022-12-18T05:45:07.904Z,65.14
2022-12-18T05:46:07.924Z,63.96
2022-12-18T05:47:07.865Z,65.05
2022-12-18T05:48:07.883Z,65.49
2022-12-18T05:49:07.934Z,64.44
2022-12-18T05:50:07.828Z,66.66
2022-12-18T05:51:07.812Z,66.33
2022-12-18T05:52:07.801Z,65.88
2022-12-18T05:53:07.809Z,66.23
2022-12-18T05:54:07.758Z,66.18
2022-12-18T05:55:07.738Z,64.81
2022-12-18T05:56:07.792Z,64.06
2022-12-18T05:57:07.708Z,66.88
2022-12-18T05:58:07.694Z,65.56
2022-12-18T05:59:07.713Z,66.45
2022-12-18T06:00:07.661Z,65.88
2022-12-18T06:01:07.640Z,65.20
2022-12-18T06:02:07.706Z,66.44
2022-12-18T06:03:07.644Z,65.50
2022-12-18T06:04:07.641Z,65.83
2022-12-18T06:05:07.574Z,66.49
2022-12-18T06:06:07.551Z,66.58
2022-12-18T06:07:07.541Z,66.74
2022-12-18T06:08:07.519Z,66.68
2022-12-18T06:09:07.541Z,66.95
2022-12-18T06:10:07.485Z,63.14
2022-12-18T06:11:07.465Z,65.86
2022-12-18T06:12:07.521Z,65.34
2022-12-18T06:13:07.435Z,64.82
2022-12-18T06:14:07.489Z,65.08
2022-12-18T06:15:07.402Z,66.24
2022-12-18T06:16:07.471Z,67.27
2022-12-18T06:17:07.372Z,67.68
2022-12-18T06:18:07.359Z,66.00
2022-12-18T06:19:07.374Z,67.57
2022-12-18T06:20:07.327Z,65.03
2022-12-18T06:21:07.311Z,66.12
2022-12-18T06:22:07.294Z,67.73
2022-12-18T06:23:07.270Z,66.39
2022-12-18T06:24:07.296Z,66.97
2022-12-18T06:25:07.231Z,67.92
2022-12-18T06:26:08.228Z,65.78
2022-12-18T06:27:07.208Z,66.30
2022-12-18T06:28:07.256Z,68.64
2022-12-18T06:29:07.199Z,67.03
2022-12-18T06:30:07.163Z,66.03
2022-12-18T06:31:07.230Z,65.56
2022-12-18T06:32:07.121Z,65.35
2022-12-18T06:33:07.109Z,67.21
2022-12-18T06:34:07.121Z,65.87
2022-12-18T06:35:07.082Z,67.78
2022-12-18T06:36:07.050Z,67.75
2022-12-18T06:37:07.035Z,65.42
2022-12-18T06:38:07.027Z,67.59
2022-12-18T06:39:07.049Z,66.07
2022-12-18T06:40:07.005Z,66.72
2022-12-18T06:41:06.969Z,66.83
2022-12-18T06:42:06.962Z,67.28
2022-12-18T06:43:06.939Z,67.06
2022-12-18T06:44:07.026Z,66.68
2022-12-18T06:45:06.910Z,67.64
2022-12-18T06:46:06.943Z,66.44
2022-12-18T06:47:06.875Z,65.14
2022-12-18T06:48:06.856Z,68.14
2022-12-18T06:49:06.876Z,66.30
2022-12-18T06:50:06.817Z,67.93
2022-12-18T06:51:06.822Z,67.94
2022-12-18T06:52:06.793Z,66.52
2022-12-18T06:53:06.780Z,68.21
2022-12-18T06:54:06.790Z,66.07
2022-12-18T06:55:06.745Z,67.30
2022-12-18T06:56:38.590Z,67.62
2022-12-18T06:57:06.706Z,64.97
2022-12-18T06:58:06.707Z,66.14
2022-12-18T06:59:06.726Z,67.75
2022-12-18T07:00:06.743Z,67.94
2022-12-18T07:01:06.709Z,66.69
2022-12-18T07:02:06.756Z,65.65
2022-12-18T07:03:06.633Z,66.28
2022-12-18T07:04:06.620Z,67.47
2022-12-18T07:05:10.773Z,66.95
2022-12-18T07:06:07.557Z,67.09
2022-12-18T07:07:06.538Z,67.96
2022-12-18T07:08:06.522Z,65.87
2022-12-18T07:09:06.542Z,66.66
2022-12-18T07:10:06.543Z,68.03
2022-12-18T07:11:06.492Z,66.28
2022-12-18T07:12:06.462Z,65.79
2022-12-18T07:13:06.449Z,66.94
2022-12-18T07:14:06.458Z,66.76
2022-12-18T07:15:06.408Z,66.80
2022-12-18T07:16:10.921Z,68.02
2022-12-18T07:17:08.394Z,67.95
2022-12-18T07:18:06.358Z,67.63
2022-12-18T07:19:06.374Z,66.92
2022-12-18T07:20:06.325Z,68.27
2022-12-18T07:21:06.309Z,68.38
2022-12-18T07:22:06.306Z,66.52
2022-12-18T07:23:06.276Z,66.57
2022-12-18T07:24:06.294Z,67.52
2022-12-18T07:25:06.243Z,66.45
2022-12-18T07:26:06.234Z,65.23
2022-12-18T07:27:06.213Z,68.07
2022-12-18T07:28:06.195Z,66.95
2022-12-18T07:29:06.208Z,67.49
2022-12-18T07:30:06.167Z,67.12
2022-12-18T07:31:06.163Z,67.29
2022-12-18T07:32:07.259Z,65.86
2022-12-18T07:33:06.112Z,66.60
2022-12-18T07:34:06.210Z,64.88
2022-12-18T07:35:06.095Z,68.49
2022-12-18T07:36:06.053Z,66.83
2022-12-18T07:37:06.075Z,67.24
2022-12-18T07:38:06.028Z,67.11
2022-12-18T07:39:06.177Z,65.55
2022-12-18T07:40:05.999Z,67.50
2022-12-18T07:41:06.737Z,64.95
2022-12-18T07:42:05.965Z,66.65
2022-12-18T07:43:05.966Z,67.81
2022-12-18T07:44:05.970Z,68.18
2022-12-18T07:45:05.927Z,68.41
2022-12-18T07:46:05.941Z,67.67
2022-12-18T07:47:10.531Z,67.32
2022-12-18T07:48:07.931Z,67.59
2022-12-18T07:49:05.883Z,66.65
2022-12-18T07:50:05.843Z,67.56
2022-12-18T07:51:05.798Z,69.35
2022-12-18T07:52:05.792Z,67.40
2022-12-18T07:53:05.820Z,67.93
2022-12-18T07:54:05.818Z,67.12
2022-12-18T07:55:05.732Z,67.04
2022-12-18T07:56:26.406Z,67.27
2022-12-18T07:57:21.316Z,69.32
2022-12-18T07:58:07.692Z,66.64
2022-12-18T07:59:05.701Z,69.25
2022-12-18T08:00:05.681Z,66.44
2022-12-18T08:01:05.661Z,65.62
2022-12-18T08:02:05.755Z,67.00
2022-12-18T08:03:05.610Z,65.18
2022-12-18T08:04:05.743Z,67.06
2022-12-18T08:05:05.559Z,67.55
2022-12-18T08:06:05.546Z,66.41
2022-12-18T08:07:05.550Z,65.15
2022-12-18T08:08:05.514Z,64.48
2022-12-18T08:09:05.514Z,64.30
2022-12-18T08:10:05.513Z,66.37
2022-12-18T08:11:05.471Z,68.30
2022-12-18T08:12:05.450Z,67.71
2022-12-18T08:13:05.486Z,65.91
2022-12-18T08:14:05.413Z,65.85
2022-12-18T08:15:05.447Z,66.99
2022-12-18T08:16:05.375Z,65.60
2022-12-18T08:17:05.454Z,66.09
2022-12-18T08:18:08.062Z,63.62
2022-12-18T08:19:05.332Z,66.91
2022-12-18T08:20:05.411Z,65.38
2022-12-18T08:21:05.320Z,62.52
2022-12-18T08:22:05.281Z,64.34
2022-12-18T08:23:05.254Z,65.13
2022-12-18T08:24:05.255Z,66.84
2022-12-18T08:25:05.260Z,66.38
2022-12-18T08:26:05.219Z,64.06
2022-12-18T08:27:34.624Z,62.90
2022-12-18T08:28:07.176Z,65.92
2022-12-18T08:29:05.179Z,65.66
2022-12-18T08:30:05.212Z,63.99
2022-12-18T08:31:05.239Z,67.67
2022-12-18T08:32:05.161Z,65.70
2022-12-18T08:33:05.119Z,65.31
2022-12-18T08:34:05.108Z,67.33
2022-12-18T08:35:05.090Z,68.20
2022-12-18T08:36:06.131Z,67.85
2022-12-18T08:37:05.034Z,66.74
2022-12-18T08:38:04.998Z,64.50
2022-12-18T08:39:05.992Z,67.80
2022-12-18T08:40:05.006Z,66.82
2022-12-18T08:41:04.959Z,67.65
2022-12-18T08:42:09.854Z,67.67
2022-12-18T08:43:06.930Z,66.84
2022-12-18T08:44:04.913Z,66.86
2022-12-18T08:45:04.936Z,66.72
2022-12-18T08:46:04.912Z,68.18
2022-12-18T08:47:04.861Z,67.43
2022-12-18T08:48:04.856Z,66.55
2022-12-18T08:49:04.824Z,66.38
2022-12-18T08:50:04.922Z,67.81
2022-12-18T08:51:04.797Z,68.12
2022-12-18T08:52:04.849Z,67.55
2022-12-18T08:53:04.759Z,70.08
2022-12-18T08:54:04.738Z,67.85
2022-12-18T08:55:04.752Z,66.48
2022-12-18T08:56:04.712Z,68.63
2022-12-18T08:57:04.715Z,69.54
2022-12-18T08:58:04.683Z,68.69
2022-12-18T08:59:04.657Z,66.43
2022-12-18T09:00:04.685Z,68.04
2022-12-18T09:01:04.685Z,68.05
2022-12-18T09:02:04.785Z,67.20
2022-12-18T09:03:04.647Z,66.64
2022-12-18T09:04:04.576Z,66.24
2022-12-18T09:05:04.602Z,66.51
2022-12-18T09:06:04.540Z,64.92
2022-12-18T09:07:04.534Z,66.49
2022-12-18T09:08:04.576Z,66.09
2022-12-18T09:09:04.513Z,66.51
2022-12-18T09:10:04.503Z,64.59
2022-12-18T09:11:04.460Z,67.29
2022-12-18T09:12:04.455Z,68.18
2022-12-18T09:13:04.430Z,68.36
2022-12-18T09:14:04.424Z,68.39
2022-12-18T09:15:04.539Z,66.81
2022-12-18T09:16:04.396Z,66.68
2022-12-18T09:17:04.451Z,66.42
2022-12-18T09:18:04.347Z,67.32
2022-12-18T09:19:04.328Z,67.37
2022-12-18T09:20:08.410Z,68.33
2022-12-18T09:21:04.356Z,68.82
2022-12-18T09:22:04.273Z,69.14
2022-12-18T09:23:04.272Z,68.51
2022-12-18T09:24:04.316Z,67.17
2022-12-18T09:25:04.361Z,68.55
2022-12-18T09:26:04.213Z,69.60
2022-12-18T09:27:04.211Z,67.67
2022-12-18T09:28:04.175Z,69.09
2022-12-18T09:29:04.171Z,68.65
2022-12-18T09:30:04.406Z,69.02
2022-12-18T09:31:04.154Z,68.19
2022-12-18T09:32:04.106Z,67.97
2022-12-18T09:33:04.089Z,66.56
2022-12-18T09:34:04.078Z,69.13
2022-12-18T09:35:04.104Z,68.51
2022-12-18T09:36:04.051Z,67.83
2022-12-18T09:37:04.026Z,69.22
2022-12-18T09:38:04.020Z,67.77
2022-12-18T09:39:08.163Z,68.78
2022-12-18T09:40:05.089Z,68.05
2022-12-18T09:41:03.962Z,66.92
2022-12-18T09:42:04.973Z,68.99
2022-12-18T09:43:03.928Z,67.47
2022-12-18T09:44:03.951Z,66.67
2022-12-18T09:45:04.055Z,68.86
2022-12-18T09:46:03.993Z,65.83
2022-12-18T09:47:03.853Z,66.52
2022-12-18T09:48:03.841Z,66.01
2022-12-18T09:49:03.820Z,67.58
2022-12-18T09:50:03.851Z,67.94
2022-12-18T09:51:03.809Z,68.48
2022-12-18T09:52:03.776Z,67.96
2022-12-18T09:53:03.772Z,67.13
2022-12-18T09:54:03.732Z,67.07
2022-12-18T09:55:03.757Z,68.03
2022-12-18T09:56:03.772Z,67.32
2022-12-18T09:57:03.695Z,67.92
2022-12-18T09:58:03.670Z,67.44
2022-12-18T09:59:03.653Z,69.20
2022-12-18T10:00:03.677Z,67.42
2022-12-18T10:01:03.621Z,66.53
2022-12-18T10:02:03.750Z,68.43
2022-12-18T10:03:03.781Z,68.52
2022-12-18T10:04:03.737Z,68.32
2022-12-18T10:05:03.683Z,68.16
2022-12-18T10:06:03.631Z,68.71
2022-12-18T10:07:08.931Z,68.40
2022-12-18T10:08:05.615Z,67.98
2022-12-18T10:09:03.580Z,66.61
2022-12-18T10:10:03.585Z,69.08
2022-12-18T10:11:03.584Z,67.87
2022-12-18T10:12:03.606Z,68.89
2022-12-18T10:13:04.852Z,67.33
2022-12-18T10:14:04.521Z,68.00
2022-12-18T10:15:03.480Z,68.69
2022-12-18T10:16:03.458Z,68.25
2022-12-18T10:17:03.439Z,68.47
2022-12-18T10:18:03.425Z,67.67
2022-12-18T10:19:03.415Z,67.91
2022-12-18T10:20:03.373Z,69.29
2022-12-18T10:21:03.378Z,67.80
2022-12-18T10:22:03.378Z,66.20
2022-12-18T10:23:03.370Z,68.06
2022-12-18T10:24:03.350Z,68.42
2022-12-18T10:25:03.361Z,67.21
2022-12-18T10:26:03.295Z,67.56
2022-12-18T10:27:03.306Z,67.70
2022-12-18T10:28:08.765Z,68.16
2022-12-18T10:29:05.845Z,67.32
2022-12-18T10:30:04.236Z,70.02
2022-12-18T10:31:03.299Z,68.59
2022-12-18T10:32:03.312Z,68.75
2022-12-18T10:33:03.204Z,68.61
2022-12-18T10:34:03.171Z,69.07
2022-12-18T10:35:03.312Z,68.27
2022-12-18T10:36:03.162Z,68.74
2022-12-18T10:37:03.094Z,68.91
2022-12-18T10:38:03.148Z,67.13
2022-12-18T10:39:03.134Z,68.61
2022-12-18T10:40:03.115Z,67.16
2022-12-18T10:41:03.075Z,69.22
2022-12-18T10:42:03.079Z,67.96
2022-12-18T10:43:02.991Z,68.42
2022-12-18T10:44:03.051Z,67.51
2022-12-18T10:45:02.986Z,66.98
2022-12-18T10:46:03.035Z,68.87
2022-12-18T10:47:06.160Z,68.10
2022-12-18T10:48:03.960Z,69.72
2022-12-18T10:49:02.942Z,68.78
2022-12-18T10:50:02.928Z,69.84
2022-12-18T10:51:12.896Z,68.79
2022-12-18T10:52:04.940Z,71.24
2022-12-18T10:53:02.931Z,70.31
2022-12-18T10:54:02.890Z,67.06
2022-12-18T10:55:02.803Z,68.16
2022-12-18T10:56:02.833Z,68.44
2022-12-18T10:57:02.788Z,69.60
2022-12-18T10:58:02.791Z,71.05
2022-12-18T10:59:02.755Z,70.27
2022-12-18T11:00:02.740Z,69.70
2022-12-18T11:01:08.573Z,70.80
2022-12-18T11:02:03.942Z,69.86
2022-12-18T11:03:02.769Z,68.28
2022-12-18T11:04:03.005Z,68.99
2022-12-18T11:05:02.663Z,66.97
2022-12-18T11:06:02.667Z,68.77
2022-12-18T11:07:02.671Z,67.58
2022-12-18T11:08:02.630Z,69.43
2022-12-18T11:09:05.360Z,69.02
2022-12-18T11:10:03.541Z,70.05
2022-12-18T11:11:02.555Z,68.91
2022-12-18T11:12:02.483Z,69.65
2022-12-18T11:13:02.499Z,69.44
2022-12-18T11:14:02.502Z,69.61
2022-12-18T11:15:02.440Z,69.94
2022-12-18T11:16:02.521Z,69.57
2022-12-18T11:17:24.803Z,69.07
2022-12-18T11:18:04.513Z,68.59
2022-12-18T11:19:02.452Z,69.15
2022-12-18T11:20:02.386Z,70.31
2022-12-18T11:21:02.427Z,68.37
2022-12-18T11:22:02.313Z,69.16
2022-12-18T11:23:02.248Z,70.16
2022-12-18T11:24:02.253Z,69.84
2022-12-18T11:25:32.168Z,69.56
2022-12-18T11:26:04.228Z,70.36
2022-12-18T11:27:02.186Z,70.67
2022-12-18T11:28:02.170Z,69.76
2022-12-18T11:29:02.142Z,70.36
2022-12-18T11:30:02.151Z,68.80
2022-12-18T11:31:02.174Z,69.48
2022-12-18T11:32:02.099Z,67.48
2022-12-18T11:33:02.088Z,67.31
2022-12-18T11:35:04.120Z,69.39
2022-12-18T11:36:02.068Z,69.64
2022-12-18T11:37:02.032Z,70.38
2022-12-18T11:38:02.005Z,70.16
2022-12-18T11:39:01.986Z,69.73
2022-12-18T11:40:01.971Z,69.19
2022-12-18T11:41:01.970Z,70.24
2022-12-18T11:42:01.921Z,70.83
2022-12-18T11:43:01.920Z,70.62
2022-12-18T11:44:01.887Z,70.91
2022-12-18T11:45:01.889Z,70.35
2022-12-18T11:46:01.994Z,70.25
2022-12-18T11:47:01.880Z,71.79
2022-12-18T11:48:01.829Z,70.32
2022-12-18T11:49:01.808Z,70.13
2022-12-18T11:50:01.802Z,70.44
2022-12-18T11:51:01.880Z,71.53
2022-12-18T11:52:01.753Z,70.12
2022-12-18T11:53:05.956Z,69.07
2022-12-18T11:54:02.735Z,71.09
2022-12-18T11:55:01.702Z,69.82
2022-12-18T11:56:01.716Z,71.32
2022-12-18T11:57:01.666Z,69.49
2022-12-18T11:58:01.661Z,71.14
2022-12-18T11:59:01.636Z,69.66
2022-12-18T12:00:01.646Z,70.68
2022-12-18T12:01:01.658Z,69.56
2022-12-18T12:02:01.744Z,69.76
2022-12-18T12:03:01.653Z,69.72
2022-12-18T12:04:01.563Z,70.26
2022-12-18T12:05:01.533Z,69.77
2022-12-18T12:06:01.553Z,70.56
2022-12-18T12:07:03.476Z,69.73
2022-12-18T12:08:02.546Z,70.03
2022-12-18T12:09:01.471Z,70.14
2022-12-18T12:10:01.463Z,70.35
2022-12-18T12:11:01.422Z,70.83
2022-12-18T12:12:01.474Z,69.49
2022-12-18T12:13:01.411Z,69.56
2022-12-18T12:14:01.375Z,70.15
2022-12-18T12:15:01.376Z,70.05
2022-12-18T12:16:01.372Z,69.75
2022-12-18T12:17:01.427Z,70.48
2022-12-18T12:18:01.308Z,69.67
2022-12-18T12:19:01.300Z,70.79
2022-12-18T12:20:01.264Z,70.08
2022-12-18T12:21:01.262Z,69.46
2022-12-18T12:22:01.271Z,69.79
2022-12-18T12:23:01.283Z,69.95
2022-12-18T12:24:01.200Z,68.22
2022-12-18T12:25:01.186Z,70.53
2022-12-18T12:26:01.161Z,69.65
2022-12-18T12:27:01.211Z,69.71
2022-12-18T12:28:01.126Z,70.56
2022-12-18T12:29:01.114Z,70.12
2022-12-18T12:30:01.129Z,70.48
2022-12-18T12:31:01.074Z,68.82
2022-12-18T12:32:01.244Z,69.20
2022-12-18T12:33:01.038Z,69.70
2022-12-18T12:34:01.037Z,68.86
2022-12-18T12:35:06.076Z,69.35
2022-12-18T12:36:02.997Z,68.79
2022-12-18T12:37:01.011Z,70.17
2022-12-18T12:38:00.974Z,70.94
2022-12-18T12:39:01.006Z,69.33
2022-12-18T12:40:07.267Z,71.75
2022-12-18T12:41:03.369Z,70.72
2022-12-18T12:42:01.935Z,71.39
2022-12-18T12:43:00.874Z,70.65
2022-12-18T12:44:00.858Z,69.93
2022-12-18T12:45:00.834Z,71.35
2022-12-18T12:46:00.865Z,69.27
2022-12-18T12:47:00.826Z,71.41
2022-12-18T12:48:00.793Z,69.72
2022-12-18T12:49:00.762Z,69.32
2022-12-18T12:50:00.743Z,70.18
2022-12-18T12:51:00.729Z,69.74
2022-12-18T12:52:00.745Z,69.17
2022-12-18T12:53:00.690Z,70.77
2022-12-18T12:54:00.681Z,70.53